sensor_id;sensor_type;location;lat;lon;timestamp;P1;durP1;ratioP1;P2;durP2;ratioP2
27822;SDS011;29019;47.630;8.262;2023-06-04T00:01:00;15.77;;;6.50;;
27822;SDS011;29019;47.630;8.262;2023-06-04T00:05:03;14.32;;;7.85;;
27822;SDS011;29019;47.630;8.262;2023-06-04T00:09:05;25.17;;;8.10;;
27822;SDS011;29019;47.630;8.262;2023-06-04T00:13:07;18.60;;;7.07;;
27822;SDS011;29019;47.630;8.262;2023-06-04T00:17:09;14.00;;;6.90;;
27822;SDS011;29019;47.630;8.262;2023-06-04T00:21:11;16.42;;;6.57;;
27822;SDS011;29019;47.630;8.262;2023-06-04T00:25:13;14.15;;;7.30;;
27822;SDS011;29019;47.630;8.262;2023-06-04T00:29:14;15.82;;;7.15;;
27822;SDS011;29019;47.630;8.262;2023-06-04T00:33:16;13.80;;;6.53;;
27822;SDS011;29019;47.630;8.262;2023-06-04T00:37:17;11.02;;;6.93;;
27822;SDS011;29019;47.630;8.262;2023-06-04T00:41:19;17.70;;;6.50;;
27822;SDS011;29019;47.630;8.262;2023-06-04T00:45:21;17.92;;;7.22;;
27822;SDS011;29019;47.630;8.262;2023-06-04T00:49:26;18.50;;;6.63;;
27822;SDS011;29019;47.630;8.262;2023-06-04T00:53:28;16.73;;;7.72;;
27822;SDS011;29019;47.630;8.262;2023-06-04T00:57:30;16.13;;;6.40;;
27822;SDS011;29019;47.630;8.262;2023-06-04T01:01:33;15.77;;;6.63;;
27822;SDS011;29019;47.630;8.262;2023-06-04T01:05:51;15.50;;;5.75;;
27822;SDS011;29019;47.630;8.262;2023-06-04T01:10:04;12.23;;;6.45;;
27822;SDS011;29019;47.630;8.262;2023-06-04T01:14:07;15.27;;;6.07;;
27822;SDS011;29019;47.630;8.262;2023-06-04T01:18:10;12.15;;;5.68;;
27822;SDS011;29019;47.630;8.262;2023-06-04T01:22:38;11.68;;;5.97;;
27822;SDS011;29019;47.630;8.262;2023-06-04T01:26:47;13.35;;;5.90;;
27822;SDS011;29019;47.630;8.262;2023-06-04T01:30:50;13.85;;;5.95;;
27822;SDS011;29019;47.630;8.262;2023-06-04T01:34:51;11.13;;;4.93;;
27822;SDS011;29019;47.630;8.262;2023-06-04T01:38:51;11.10;;;6.22;;
27822;SDS011;29019;47.630;8.262;2023-06-04T01:42:52;9.45;;;5.53;;
27822;SDS011;29019;47.630;8.262;2023-06-04T01:46:53;12.65;;;5.80;;
27822;SDS011;29019;47.630;8.262;2023-06-04T01:50:54;16.02;;;6.20;;
27822;SDS011;29019;47.630;8.262;2023-06-04T01:54:55;9.40;;;5.40;;
27822;SDS011;29019;47.630;8.262;2023-06-04T01:58:55;10.43;;;4.97;;
27822;SDS011;29019;47.630;8.262;2023-06-04T02:02:56;13.13;;;5.40;;
27822;SDS011;29019;47.630;8.262;2023-06-04T02:06:58;7.70;;;4.40;;
27822;SDS011;29019;47.630;8.262;2023-06-04T02:10:59;11.93;;;5.47;;
27822;SDS011;29019;47.630;8.262;2023-06-04T02:15:00;8.57;;;5.45;;
27822;SDS011;29019;47.630;8.262;2023-06-04T02:19:00;7.80;;;5.00;;
27822;SDS011;29019;47.630;8.262;2023-06-04T02:23:03;8.10;;;4.72;;
27822;SDS011;29019;47.630;8.262;2023-06-04T02:27:03;8.32;;;4.93;;
27822;SDS011;29019;47.630;8.262;2023-06-04T02:31:06;8.93;;;4.65;;
27822;SDS011;29019;47.630;8.262;2023-06-04T02:35:07;9.02;;;4.90;;
27822;SDS011;29019;47.630;8.262;2023-06-04T02:39:08;9.88;;;5.22;;
27822;SDS011;29019;47.630;8.262;2023-06-04T02:43:08;10.05;;;4.72;;
27822;SDS011;29019;47.630;8.262;2023-06-04T02:47:09;8.55;;;5.30;;
27822;SDS011;29019;47.630;8.262;2023-06-04T02:51:09;9.80;;;4.82;;
27822;SDS011;29019;47.630;8.262;2023-06-04T02:55:10;10.88;;;5.75;;
27822;SDS011;29019;47.630;8.262;2023-06-04T02:59:12;8.05;;;5.38;;
27822;SDS011;29019;47.630;8.262;2023-06-04T03:03:13;9.02;;;5.07;;
27822;SDS011;29019;47.630;8.262;2023-06-04T03:11:19;10.25;;;5.15;;
27822;SDS011;29019;47.630;8.262;2023-06-04T03:15:23;7.07;;;4.65;;
27822;SDS011;29019;47.630;8.262;2023-06-04T03:19:23;8.52;;;4.60;;
27822;SDS011;29019;47.630;8.262;2023-06-04T03:23:24;9.45;;;5.15;;
27822;SDS011;29019;47.630;8.262;2023-06-04T03:27:25;8.13;;;5.18;;
27822;SDS011;29019;47.630;8.262;2023-06-04T03:31:26;10.80;;;4.25;;
27822;SDS011;29019;47.630;8.262;2023-06-04T03:39:28;6.60;;;4.37;;
27822;SDS011;29019;47.630;8.262;2023-06-04T03:43:28;6.95;;;4.93;;
27822;SDS011;29019;47.630;8.262;2023-06-04T03:47:29;7.63;;;4.75;;
27822;SDS011;29019;47.630;8.262;2023-06-04T03:51:30;6.82;;;4.00;;
27822;SDS011;29019;47.630;8.262;2023-06-04T03:55:30;9.43;;;4.63;;
27822;SDS011;29019;47.630;8.262;2023-06-04T03:59:34;7.22;;;4.40;;
27822;SDS011;29019;47.630;8.262;2023-06-04T04:03:35;9.73;;;5.30;;
27822;SDS011;29019;47.630;8.262;2023-06-04T04:07:35;6.45;;;4.45;;
27822;SDS011;29019;47.630;8.262;2023-06-04T04:11:36;6.05;;;4.20;;
27822;SDS011;29019;47.630;8.262;2023-06-04T04:15:37;8.35;;;4.78;;
27822;SDS011;29019;47.630;8.262;2023-06-04T04:19:37;7.95;;;4.32;;
27822;SDS011;29019;47.630;8.262;2023-06-04T04:23:38;7.25;;;3.90;;
27822;SDS011;29019;47.630;8.262;2023-06-04T04:27:42;6.85;;;4.38;;
27822;SDS011;29019;47.630;8.262;2023-06-04T04:31:43;6.72;;;4.22;;
27822;SDS011;29019;47.630;8.262;2023-06-04T04:35:44;6.80;;;4.20;;
27822;SDS011;29019;47.630;8.262;2023-06-04T04:43:45;6.17;;;3.67;;
27822;SDS011;29019;47.630;8.262;2023-06-04T04:47:46;6.32;;;3.88;;
27822;SDS011;29019;47.630;8.262;2023-06-04T04:51:47;5.57;;;4.05;;
27822;SDS011;29019;47.630;8.262;2023-06-04T04:55:47;5.50;;;3.95;;
27822;SDS011;29019;47.630;8.262;2023-06-04T04:59:48;6.68;;;4.72;;
27822;SDS011;29019;47.630;8.262;2023-06-04T05:03:49;5.50;;;3.58;;
27822;SDS011;29019;47.630;8.262;2023-06-04T05:07:50;6.43;;;4.45;;
27822;SDS011;29019;47.630;8.262;2023-06-04T05:11:51;5.90;;;3.88;;
27822;SDS011;29019;47.630;8.262;2023-06-04T05:15:52;5.95;;;4.00;;
27822;SDS011;29019;47.630;8.262;2023-06-04T05:19:52;7.22;;;3.88;;
27822;SDS011;29019;47.630;8.262;2023-06-04T05:23:53;5.97;;;4.13;;
27822;SDS011;29019;47.630;8.262;2023-06-04T05:27:53;6.10;;;4.63;;
27822;SDS011;29019;47.630;8.262;2023-06-04T05:31:56;6.93;;;4.05;;
27822;SDS011;29019;47.630;8.262;2023-06-04T05:35:56;5.40;;;3.95;;
27822;SDS011;29019;47.630;8.262;2023-06-04T05:39:58;4.90;;;3.80;;
27822;SDS011;29019;47.630;8.262;2023-06-04T05:44:00;5.90;;;3.40;;
27822;SDS011;29019;47.630;8.262;2023-06-04T05:48:00;5.50;;;3.55;;
27822;SDS011;29019;47.630;8.262;2023-06-04T05:52:01;6.72;;;4.75;;
27822;SDS011;29019;47.630;8.262;2023-06-04T05:56:01;4.53;;;3.22;;
27822;SDS011;29019;47.630;8.262;2023-06-04T06:00:02;6.65;;;4.03;;
27822;SDS011;29019;47.630;8.262;2023-06-04T06:04:08;5.32;;;3.45;;
27822;SDS011;29019;47.630;8.262;2023-06-04T06:08:10;5.13;;;3.65;;
27822;SDS011;29019;47.630;8.262;2023-06-04T06:12:11;5.13;;;3.17;;
27822;SDS011;29019;47.630;8.262;2023-06-04T06:16:11;5.65;;;3.47;;
27822;SDS011;29019;47.630;8.262;2023-06-04T06:20:12;4.95;;;3.33;;
27822;SDS011;29019;47.630;8.262;2023-06-04T06:24:17;5.72;;;3.83;;
27822;SDS011;29019;47.630;8.262;2023-06-04T06:28:18;5.53;;;4.07;;
27822;SDS011;29019;47.630;8.262;2023-06-04T06:32:18;5.68;;;3.45;;
27822;SDS011;29019;47.630;8.262;2023-06-04T06:36:19;5.30;;;3.75;;
27822;SDS011;29019;47.630;8.262;2023-06-04T06:40:20;5.05;;;3.72;;
27822;SDS011;29019;47.630;8.262;2023-06-04T06:44:20;4.60;;;3.10;;
27822;SDS011;29019;47.630;8.262;2023-06-04T06:48:21;5.13;;;3.63;;
27822;SDS011;29019;47.630;8.262;2023-06-04T06:52:22;4.60;;;3.38;;
27822;SDS011;29019;47.630;8.262;2023-06-04T06:56:23;4.80;;;3.50;;
27822;SDS011;29019;47.630;8.262;2023-06-04T07:00:23;5.03;;;3.15;;
27822;SDS011;29019;47.630;8.262;2023-06-04T07:04:25;5.13;;;3.80;;
27822;SDS011;29019;47.630;8.262;2023-06-04T07:08:26;5.53;;;3.33;;
27822;SDS011;29019;47.630;8.262;2023-06-04T07:12:26;4.75;;;3.03;;
27822;SDS011;29019;47.630;8.262;2023-06-04T07:16:27;5.82;;;3.35;;
27822;SDS011;29019;47.630;8.262;2023-06-04T07:24:30;3.92;;;2.92;;
27822;SDS011;29019;47.630;8.262;2023-06-04T07:28:31;5.57;;;3.55;;
27822;SDS011;29019;47.630;8.262;2023-06-04T07:32:32;3.65;;;3.13;;
27822;SDS011;29019;47.630;8.262;2023-06-04T07:36:32;4.20;;;3.15;;
27822;SDS011;29019;47.630;8.262;2023-06-04T07:40:33;5.82;;;3.50;;
27822;SDS011;29019;47.630;8.262;2023-06-04T07:44:35;4.47;;;3.17;;
27822;SDS011;29019;47.630;8.262;2023-06-04T07:48:36;4.65;;;3.45;;
27822;SDS011;29019;47.630;8.262;2023-06-04T07:52:37;4.95;;;3.25;;
27822;SDS011;29019;47.630;8.262;2023-06-04T07:56:37;4.93;;;3.63;;
27822;SDS011;29019;47.630;8.262;2023-06-04T08:00:38;4.25;;;2.90;;
27822;SDS011;29019;47.630;8.262;2023-06-04T08:04:38;4.82;;;3.08;;
27822;SDS011;29019;47.630;8.262;2023-06-04T08:08:43;4.18;;;2.83;;
27822;SDS011;29019;47.630;8.262;2023-06-04T08:12:45;3.80;;;3.13;;
27822;SDS011;29019;47.630;8.262;2023-06-04T08:16:46;4.55;;;2.85;;
27822;SDS011;29019;47.630;8.262;2023-06-04T08:20:46;3.58;;;2.97;;
27822;SDS011;29019;47.630;8.262;2023-06-04T08:24:47;3.33;;;2.50;;
27822;SDS011;29019;47.630;8.262;2023-06-04T08:28:48;3.95;;;3.13;;
27822;SDS011;29019;47.630;8.262;2023-06-04T08:36:50;4.43;;;3.03;;
27822;SDS011;29019;47.630;8.262;2023-06-04T08:40:52;3.70;;;2.80;;
27822;SDS011;29019;47.630;8.262;2023-06-04T08:44:56;3.67;;;2.72;;
27822;SDS011;29019;47.630;8.262;2023-06-04T08:48:59;4.45;;;2.65;;
27822;SDS011;29019;47.630;8.262;2023-06-04T08:53:04;3.85;;;2.80;;
27822;SDS011;29019;47.630;8.262;2023-06-04T08:57:05;4.30;;;3.10;;
27822;SDS011;29019;47.630;8.262;2023-06-04T09:01:05;4.50;;;2.80;;
27822;SDS011;29019;47.630;8.262;2023-06-04T09:05:07;2.85;;;2.55;;
27822;SDS011;29019;47.630;8.262;2023-06-04T09:09:11;4.07;;;2.90;;
27822;SDS011;29019;47.630;8.262;2023-06-04T09:13:15;3.92;;;2.90;;
27822;SDS011;29019;47.630;8.262;2023-06-04T09:17:21;3.13;;;2.72;;
27822;SDS011;29019;47.630;8.262;2023-06-04T09:21:23;4.22;;;3.10;;
27822;SDS011;29019;47.630;8.262;2023-06-04T09:25:25;4.32;;;3.22;;
27822;SDS011;29019;47.630;8.262;2023-06-04T09:29:26;5.50;;;2.88;;
27822;SDS011;29019;47.630;8.262;2023-06-04T09:33:27;4.00;;;3.00;;
27822;SDS011;29019;47.630;8.262;2023-06-04T09:37:28;4.03;;;2.88;;
27822;SDS011;29019;47.630;8.262;2023-06-04T09:41:29;4.28;;;2.83;;
27822;SDS011;29019;47.630;8.262;2023-06-04T09:45:30;4.03;;;2.80;;
27822;SDS011;29019;47.630;8.262;2023-06-04T09:49:39;3.80;;;2.85;;
27822;SDS011;29019;47.630;8.262;2023-06-04T09:57:53;3.75;;;2.50;;
27822;SDS011;29019;47.630;8.262;2023-06-04T10:01:53;3.42;;;2.63;;
27822;SDS011;29019;47.630;8.262;2023-06-04T10:05:56;3.10;;;2.47;;
27822;SDS011;29019;47.630;8.262;2023-06-04T10:09:57;3.80;;;2.60;;
27822;SDS011;29019;47.630;8.262;2023-06-04T10:18:18;4.07;;;3.13;;
27822;SDS011;29019;47.630;8.262;2023-06-04T10:22:22;3.90;;;3.10;;
27822;SDS011;29019;47.630;8.262;2023-06-04T10:26:24;3.88;;;2.95;;
27822;SDS011;29019;47.630;8.262;2023-06-04T10:30:25;3.38;;;2.55;;
27822;SDS011;29019;47.630;8.262;2023-06-04T10:34:26;4.88;;;2.40;;
27822;SDS011;29019;47.630;8.262;2023-06-04T10:38:27;2.70;;;2.42;;
27822;SDS011;29019;47.630;8.262;2023-06-04T10:42:37;4.13;;;2.85;;
27822;SDS011;29019;47.630;8.262;2023-06-04T10:46:40;3.65;;;2.70;;
27822;SDS011;29019;47.630;8.262;2023-06-04T10:50:51;3.00;;;2.47;;
27822;SDS011;29019;47.630;8.262;2023-06-04T10:55:02;3.97;;;2.70;;
27822;SDS011;29019;47.630;8.262;2023-06-04T10:59:13;2.92;;;2.60;;
27822;SDS011;29019;47.630;8.262;2023-06-04T11:03:15;3.50;;;2.60;;
27822;SDS011;29019;47.630;8.262;2023-06-04T11:07:16;3.40;;;2.50;;
27822;SDS011;29019;47.630;8.262;2023-06-04T11:11:16;3.80;;;2.63;;
27822;SDS011;29019;47.630;8.262;2023-06-04T11:15:17;2.63;;;2.20;;
27822;SDS011;29019;47.630;8.262;2023-06-04T11:19:17;3.22;;;2.40;;
27822;SDS011;29019;47.630;8.262;2023-06-04T11:23:18;2.80;;;2.45;;
27822;SDS011;29019;47.630;8.262;2023-06-04T11:27:19;3.38;;;2.60;;
27822;SDS011;29019;47.630;8.262;2023-06-04T11:31:20;2.65;;;2.13;;
27822;SDS011;29019;47.630;8.262;2023-06-04T11:39:22;3.77;;;2.43;;
27822;SDS011;29019;47.630;8.262;2023-06-04T11:43:23;2.85;;;2.53;;
27822;SDS011;29019;47.630;8.262;2023-06-04T11:47:24;2.83;;;2.42;;
27822;SDS011;29019;47.630;8.262;2023-06-04T11:55:25;3.83;;;2.50;;
27822;SDS011;29019;47.630;8.262;2023-06-04T11:59:26;3.05;;;2.40;;
27822;SDS011;29019;47.630;8.262;2023-06-04T12:03:37;3.03;;;2.40;;
27822;SDS011;29019;47.630;8.262;2023-06-04T12:11:39;3.17;;;2.30;;
27822;SDS011;29019;47.630;8.262;2023-06-04T12:15:41;2.92;;;2.30;;
27822;SDS011;29019;47.630;8.262;2023-06-04T12:19:48;2.88;;;2.50;;
27822;SDS011;29019;47.630;8.262;2023-06-04T12:23:50;2.28;;;1.95;;
27822;SDS011;29019;47.630;8.262;2023-06-04T12:27:51;2.58;;;1.83;;
27822;SDS011;29019;47.630;8.262;2023-06-04T12:31:51;2.40;;;2.10;;
27822;SDS011;29019;47.630;8.262;2023-06-04T12:36:05;4.53;;;2.28;;
27822;SDS011;29019;47.630;8.262;2023-06-04T12:40:06;2.50;;;2.20;;
27822;SDS011;29019;47.630;8.262;2023-06-04T12:48:07;3.90;;;2.43;;
27822;SDS011;29019;47.630;8.262;2023-06-04T12:52:08;2.83;;;2.40;;
27822;SDS011;29019;47.630;8.262;2023-06-04T12:56:09;3.22;;;2.30;;
27822;SDS011;29019;47.630;8.262;2023-06-04T13:00:10;3.53;;;2.30;;
27822;SDS011;29019;47.630;8.262;2023-06-04T13:04:11;2.55;;;2.10;;
27822;SDS011;29019;47.630;8.262;2023-06-04T13:08:13;3.03;;;2.40;;
27822;SDS011;29019;47.630;8.262;2023-06-04T13:12:14;2.85;;;2.03;;
27822;SDS011;29019;47.630;8.262;2023-06-04T13:16:14;2.03;;;1.80;;
27822;SDS011;29019;47.630;8.262;2023-06-04T13:20:15;3.03;;;2.28;;
27822;SDS011;29019;47.630;8.262;2023-06-04T13:24:16;3.08;;;2.40;;
27822;SDS011;29019;47.630;8.262;2023-06-04T13:28:16;4.15;;;2.20;;
27822;SDS011;29019;47.630;8.262;2023-06-04T13:32:17;2.30;;;1.90;;
27822;SDS011;29019;47.630;8.262;2023-06-04T13:36:18;2.72;;;2.05;;
27822;SDS011;29019;47.630;8.262;2023-06-04T13:40:19;2.17;;;1.92;;
27822;SDS011;29019;47.630;8.262;2023-06-04T13:44:21;2.25;;;2.00;;
27822;SDS011;29019;47.630;8.262;2023-06-04T13:48:26;2.65;;;2.13;;
27822;SDS011;29019;47.630;8.262;2023-06-04T13:52:26;2.15;;;1.95;;
27822;SDS011;29019;47.630;8.262;2023-06-04T13:56:28;3.42;;;2.42;;
27822;SDS011;29019;47.630;8.262;2023-06-04T14:00:29;1.98;;;1.77;;
27822;SDS011;29019;47.630;8.262;2023-06-04T14:08:31;2.30;;;1.90;;
27822;SDS011;29019;47.630;8.262;2023-06-04T14:12:32;2.30;;;2.10;;
27822;SDS011;29019;47.630;8.262;2023-06-04T14:16:33;2.17;;;1.90;;
27822;SDS011;29019;47.630;8.262;2023-06-04T14:20:33;2.40;;;2.20;;
27822;SDS011;29019;47.630;8.262;2023-06-04T14:24:34;2.45;;;1.95;;
27822;SDS011;29019;47.630;8.262;2023-06-04T14:28:35;2.53;;;1.83;;
27822;SDS011;29019;47.630;8.262;2023-06-04T14:32:35;2.70;;;1.88;;
27822;SDS011;29019;47.630;8.262;2023-06-04T14:40:37;2.40;;;1.83;;
27822;SDS011;29019;47.630;8.262;2023-06-04T14:44:38;2.88;;;2.10;;
27822;SDS011;29019;47.630;8.262;2023-06-04T14:48:39;2.85;;;1.88;;
27822;SDS011;29019;47.630;8.262;2023-06-04T14:52:39;2.03;;;1.67;;
27822;SDS011;29019;47.630;8.262;2023-06-04T14:56:40;3.55;;;2.05;;
27822;SDS011;29019;47.630;8.262;2023-06-04T15:00:44;2.50;;;2.30;;
27822;SDS011;29019;47.630;8.262;2023-06-04T15:04:45;2.45;;;2.00;;
27822;SDS011;29019;47.630;8.262;2023-06-04T15:08:46;2.25;;;2.05;;
27822;SDS011;29019;47.630;8.262;2023-06-04T15:12:47;2.20;;;1.95;;
27822;SDS011;29019;47.630;8.262;2023-06-04T15:16:48;2.35;;;1.95;;
27822;SDS011;29019;47.630;8.262;2023-06-04T15:20:48;2.38;;;2.10;;
27822;SDS011;29019;47.630;8.262;2023-06-04T15:24:49;2.60;;;2.15;;
27822;SDS011;29019;47.630;8.262;2023-06-04T15:28:49;2.38;;;2.00;;
27822;SDS011;29019;47.630;8.262;2023-06-04T15:32:50;3.20;;;2.03;;
27822;SDS011;29019;47.630;8.262;2023-06-04T15:36:52;2.03;;;1.75;;
27822;SDS011;29019;47.630;8.262;2023-06-04T15:40:52;2.30;;;2.08;;
27822;SDS011;29019;47.630;8.262;2023-06-04T15:44:53;2.95;;;1.77;;
27822;SDS011;29019;47.630;8.262;2023-06-04T15:48:53;5.32;;;3.55;;
27822;SDS011;29019;47.630;8.262;2023-06-04T15:52:54;2.92;;;2.10;;
27822;SDS011;29019;47.630;8.262;2023-06-04T15:56:55;2.40;;;1.83;;
27822;SDS011;29019;47.630;8.262;2023-06-04T16:00:55;1.98;;;1.77;;
27822;SDS011;29019;47.630;8.262;2023-06-04T16:04:56;2.30;;;2.10;;
27822;SDS011;29019;47.630;8.262;2023-06-04T16:08:57;3.38;;;2.17;;
27822;SDS011;29019;47.630;8.262;2023-06-04T16:12:57;2.90;;;2.05;;
27822;SDS011;29019;47.630;8.262;2023-06-04T16:16:58;2.55;;;2.13;;
27822;SDS011;29019;47.630;8.262;2023-06-04T16:20:58;2.20;;;2.00;;
27822;SDS011;29019;47.630;8.262;2023-06-04T16:25:00;2.15;;;1.88;;
27822;SDS011;29019;47.630;8.262;2023-06-04T16:29:01;2.00;;;1.58;;
27822;SDS011;29019;47.630;8.262;2023-06-04T16:33:01;2.63;;;2.00;;
27822;SDS011;29019;47.630;8.262;2023-06-04T16:37:02;2.10;;;1.90;;
27822;SDS011;29019;47.630;8.262;2023-06-04T16:41:03;2.50;;;1.98;;
27822;SDS011;29019;47.630;8.262;2023-06-04T16:45:04;1.85;;;1.58;;
27822;SDS011;29019;47.630;8.262;2023-06-04T16:53:05;1.67;;;1.57;;
27822;SDS011;29019;47.630;8.262;2023-06-04T17:01:08;2.08;;;1.75;;
27822;SDS011;29019;47.630;8.262;2023-06-04T17:09:11;2.50;;;1.77;;
27822;SDS011;29019;47.630;8.262;2023-06-04T17:13:12;2.72;;;2.00;;
27822;SDS011;29019;47.630;8.262;2023-06-04T17:17:13;2.00;;;1.77;;
27822;SDS011;29019;47.630;8.262;2023-06-04T17:21:13;1.98;;;1.70;;
27822;SDS011;29019;47.630;8.262;2023-06-04T17:25:17;1.85;;;1.67;;
27822;SDS011;29019;47.630;8.262;2023-06-04T17:29:17;2.03;;;1.80;;
27822;SDS011;29019;47.630;8.262;2023-06-04T17:33:18;2.28;;;1.70;;
27822;SDS011;29019;47.630;8.262;2023-06-04T17:37:18;2.13;;;1.90;;
27822;SDS011;29019;47.630;8.262;2023-06-04T17:41:19;2.20;;;2.00;;
27822;SDS011;29019;47.630;8.262;2023-06-04T17:45:20;2.47;;;1.65;;
27822;SDS011;29019;47.630;8.262;2023-06-04T17:49:21;2.38;;;1.80;;
27822;SDS011;29019;47.630;8.262;2023-06-04T17:53:21;2.58;;;1.70;;
27822;SDS011;29019;47.630;8.262;2023-06-04T17:57:23;2.08;;;1.70;;
27822;SDS011;29019;47.630;8.262;2023-06-04T18:01:24;2.53;;;1.98;;
27822;SDS011;29019;47.630;8.262;2023-06-04T18:05:25;2.92;;;2.00;;
27822;SDS011;29019;47.630;8.262;2023-06-04T18:09:25;1.77;;;1.60;;
27822;SDS011;29019;47.630;8.262;2023-06-04T18:13:26;2.35;;;2.00;;
27822;SDS011;29019;47.630;8.262;2023-06-04T18:17:27;2.42;;;1.77;;
27822;SDS011;29019;47.630;8.262;2023-06-04T18:21:27;3.40;;;1.50;;
27822;SDS011;29019;47.630;8.262;2023-06-04T18:25:28;1.70;;;1.42;;
27822;SDS011;29019;47.630;8.262;2023-06-04T18:29:28;1.75;;;1.63;;
27822;SDS011;29019;47.630;8.262;2023-06-04T18:33:29;1.67;;;1.40;;
27822;SDS011;29019;47.630;8.262;2023-06-04T18:37:30;1.55;;;1.40;;
27822;SDS011;29019;47.630;8.262;2023-06-04T18:41:31;2.22;;;1.50;;
27822;SDS011;29019;47.630;8.262;2023-06-04T18:45:31;1.98;;;1.60;;
27822;SDS011;29019;47.630;8.262;2023-06-04T18:49:32;6.97;;;1.73;;
27822;SDS011;29019;47.630;8.262;2023-06-04T18:53:32;4.18;;;1.60;;
27822;SDS011;29019;47.630;8.262;2023-06-04T18:57:33;2.17;;;1.70;;
27822;SDS011;29019;47.630;8.262;2023-06-04T19:01:37;2.95;;;1.80;;
27822;SDS011;29019;47.630;8.262;2023-06-04T19:05:38;3.78;;;1.75;;
27822;SDS011;29019;47.630;8.262;2023-06-04T19:09:38;3.30;;;1.73;;
27822;SDS011;29019;47.630;8.262;2023-06-04T19:13:39;3.13;;;1.83;;
27822;SDS011;29019;47.630;8.262;2023-06-04T19:17:40;5.13;;;1.92;;
27822;SDS011;29019;47.630;8.262;2023-06-04T19:21:40;2.30;;;1.60;;
27822;SDS011;29019;47.630;8.262;2023-06-04T19:25:41;6.43;;;1.90;;
27822;SDS011;29019;47.630;8.262;2023-06-04T19:29:42;2.20;;;1.70;;
27822;SDS011;29019;47.630;8.262;2023-06-04T19:33:44;7.78;;;2.25;;
27822;SDS011;29019;47.630;8.262;2023-06-04T19:37:45;2.55;;;1.70;;
27822;SDS011;29019;47.630;8.262;2023-06-04T19:41:48;3.80;;;1.70;;
27822;SDS011;29019;47.630;8.262;2023-06-04T19:45:49;4.25;;;2.10;;
27822;SDS011;29019;47.630;8.262;2023-06-04T19:49:50;6.07;;;1.90;;
27822;SDS011;29019;47.630;8.262;2023-06-04T19:53:51;4.85;;;1.80;;
27822;SDS011;29019;47.630;8.262;2023-06-04T19:57:52;2.63;;;1.73;;
27822;SDS011;29019;47.630;8.262;2023-06-04T20:01:55;7.88;;;2.13;;
27822;SDS011;29019;47.630;8.262;2023-06-04T20:05:56;8.30;;;2.15;;
27822;SDS011;29019;47.630;8.262;2023-06-04T20:09:56;8.90;;;3.15;;
27822;SDS011;29019;47.630;8.262;2023-06-04T20:13:57;3.78;;;1.70;;
27822;SDS011;29019;47.630;8.262;2023-06-04T20:17:58;5.15;;;1.83;;
27822;SDS011;29019;47.630;8.262;2023-06-04T20:21:59;5.68;;;1.90;;
27822;SDS011;29019;47.630;8.262;2023-06-04T20:25:59;8.48;;;2.00;;
27822;SDS011;29019;47.630;8.262;2023-06-04T20:30:00;5.32;;;1.90;;
27822;SDS011;29019;47.630;8.262;2023-06-04T20:34:00;3.42;;;2.25;;
27822;SDS011;29019;47.630;8.262;2023-06-04T20:38:01;6.88;;;2.30;;
27822;SDS011;29019;47.630;8.262;2023-06-04T20:42:03;6.03;;;2.05;;
27822;SDS011;29019;47.630;8.262;2023-06-04T20:46:03;2.65;;;2.03;;
27822;SDS011;29019;47.630;8.262;2023-06-04T20:50:04;4.47;;;1.70;;
27822;SDS011;29019;47.630;8.262;2023-06-04T20:54:05;3.80;;;1.60;;
27822;SDS011;29019;47.630;8.262;2023-06-04T20:58:06;1.98;;;1.35;;
27822;SDS011;29019;47.630;8.262;2023-06-04T21:02:07;5.78;;;1.92;;
27822;SDS011;29019;47.630;8.262;2023-06-04T21:06:07;8.18;;;1.85;;
27822;SDS011;29019;47.630;8.262;2023-06-04T21:10:08;6.78;;;1.60;;
27822;SDS011;29019;47.630;8.262;2023-06-04T21:18:10;1.83;;;1.30;;
27822;SDS011;29019;47.630;8.262;2023-06-04T21:22:11;5.30;;;1.70;;
27822;SDS011;29019;47.630;8.262;2023-06-04T21:26:11;3.00;;;1.45;;
27822;SDS011;29019;47.630;8.262;2023-06-04T21:30:12;3.88;;;1.60;;
27822;SDS011;29019;47.630;8.262;2023-06-04T21:34:12;2.40;;;1.50;;
27822;SDS011;29019;47.630;8.262;2023-06-04T21:38:13;3.83;;;1.70;;
27822;SDS011;29019;47.630;8.262;2023-06-04T21:42:14;6.15;;;1.42;;
27822;SDS011;29019;47.630;8.262;2023-06-04T21:46:14;3.95;;;2.20;;
27822;SDS011;29019;47.630;8.262;2023-06-04T21:50:15;5.28;;;1.83;;
27822;SDS011;29019;47.630;8.262;2023-06-04T21:54:16;3.80;;;1.77;;
27822;SDS011;29019;47.630;8.262;2023-06-04T21:58:16;7.50;;;1.67;;
27822;SDS011;29019;47.630;8.262;2023-06-04T22:02:19;5.07;;;1.60;;
27822;SDS011;29019;47.630;8.262;2023-06-04T22:06:20;3.47;;;1.67;;
27822;SDS011;29019;47.630;8.262;2023-06-04T22:10:21;7.57;;;1.40;;
27822;SDS011;29019;47.630;8.262;2023-06-04T22:14:22;6.00;;;1.88;;
27822;SDS011;29019;47.630;8.262;2023-06-04T22:18:23;2.65;;;1.65;;
27822;SDS011;29019;47.630;8.262;2023-06-04T22:22:23;3.03;;;2.15;;
27822;SDS011;29019;47.630;8.262;2023-06-04T22:26:24;4.00;;;1.45;;
27822;SDS011;29019;47.630;8.262;2023-06-04T22:30:25;2.75;;;1.45;;
27822;SDS011;29019;47.630;8.262;2023-06-04T22:34:25;5.65;;;1.70;;
27822;SDS011;29019;47.630;8.262;2023-06-04T22:38:26;4.90;;;1.50;;
27822;SDS011;29019;47.630;8.262;2023-06-04T22:42:27;2.40;;;1.30;;
27822;SDS011;29019;47.630;8.262;2023-06-04T22:46:27;6.00;;;1.67;;
27822;SDS011;29019;47.630;8.262;2023-06-04T22:50:28;3.50;;;1.50;;
27822;SDS011;29019;47.630;8.262;2023-06-04T22:54:29;1.98;;;1.30;;
27822;SDS011;29019;47.630;8.262;2023-06-04T22:58:29;6.47;;;1.45;;
27822;SDS011;29019;47.630;8.262;2023-06-04T23:02:30;2.13;;;1.67;;
27822;SDS011;29019;47.630;8.262;2023-06-04T23:06:31;4.85;;;1.42;;
27822;SDS011;29019;47.630;8.262;2023-06-04T23:10:31;2.05;;;1.50;;
27822;SDS011;29019;47.630;8.262;2023-06-04T23:14:32;4.13;;;2.38;;
27822;SDS011;29019;47.630;8.262;2023-06-04T23:18:33;2.65;;;1.50;;
27822;SDS011;29019;47.630;8.262;2023-06-04T23:22:33;1.38;;;1.00;;
27822;SDS011;29019;47.630;8.262;2023-06-04T23:26:34;2.35;;;1.48;;
27822;SDS011;29019;47.630;8.262;2023-06-04T23:30:35;3.58;;;1.65;;
27822;SDS011;29019;47.630;8.262;2023-06-04T23:34:35;2.53;;;1.25;;
27822;SDS011;29019;47.630;8.262;2023-06-04T23:38:36;1.58;;;1.13;;
27822;SDS011;29019;47.630;8.262;2023-06-04T23:42:36;2.10;;;1.65;;
27822;SDS011;29019;47.630;8.262;2023-06-04T23:46:37;2.00;;;1.58;;
27822;SDS011;29019;47.630;8.262;2023-06-04T23:50:38;5.38;;;1.40;;
27822;SDS011;29019;47.630;8.262;2023-06-04T23:54:39;1.70;;;1.40;;
27822;SDS011;29019;47.630;8.262;2023-06-04T23:58:39;3.22;;;1.60;;
